createdAt,value
2019-05-13T00:00:44.600Z,6.75
2019-05-13T00:03:19.107Z,6.90
2019-05-13T00:05:53.743Z,6.70
2019-05-13T00:08:27.789Z,6.75
2019-05-13T00:11:04.379Z,6.80
2019-05-13T00:13:38.009Z,6.90
2019-05-13T00:16:14.112Z,6.70
2019-05-13T00:18:48.858Z,6.30
2019-05-13T00:21:23.276Z,7.28
2019-05-13T00:23:57.226Z,7.17
2019-05-13T00:26:33.781Z,6.90
2019-05-13T00:29:07.958Z,7.70
2019-05-13T00:31:43.833Z,7.87
2019-05-13T00:34:17.918Z,8.23
2019-05-13T00:37:07.375Z,7.90
2019-05-13T00:39:28.284Z,8.10
2019-05-13T00:42:04.041Z,8.55
2019-05-13T00:44:38.256Z,8.40
2019-05-13T00:47:13.273Z,8.58
2019-05-13T00:49:47.481Z,8.25
2019-05-13T00:52:23.543Z,8.63
2019-05-13T00:54:58.962Z,8.18
2019-05-13T00:57:34.164Z,8.33
2019-05-13T01:00:09.217Z,9.00
2019-05-13T01:02:44.598Z,8.60
2019-05-13T01:05:19.189Z,9.03
2019-05-13T01:07:53.791Z,8.80
2019-05-13T01:10:28.084Z,8.60
2019-05-13T01:13:04.582Z,8.98
2019-05-13T01:15:38.501Z,8.60
2019-05-13T01:18:14.214Z,9.40
2019-05-13T01:20:48.747Z,9.63
2019-05-13T01:23:24.051Z,9.33
2019-05-13T01:25:58.572Z,11.28
2019-05-13T01:28:34.449Z,11.85
2019-05-13T01:31:08.917Z,11.10
2019-05-13T01:33:44.532Z,11.30
2019-05-13T01:36:18.769Z,10.65
2019-05-13T01:38:54.100Z,11.12
2019-05-13T01:41:28.499Z,10.88
2019-05-13T01:44:04.119Z,10.93
2019-05-13T01:46:38.107Z,10.32
2019-05-13T01:49:13.635Z,10.35
2019-05-13T01:51:48.400Z,10.75
2019-05-13T01:54:24.641Z,11.45
2019-05-13T01:56:58.755Z,11.05
2019-05-13T01:59:34.595Z,10.75
2019-05-13T02:02:08.873Z,11.43
2019-05-13T02:04:43.891Z,10.80
2019-05-13T02:07:18.196Z,10.75
2019-05-13T02:09:53.417Z,10.32
2019-05-13T02:12:27.788Z,11.40
2019-05-13T02:15:04.315Z,11.15
2019-05-13T02:17:39.391Z,10.68
2019-05-13T02:20:14.769Z,11.70
2019-05-13T02:22:49.580Z,11.55
2019-05-13T02:25:23.826Z,12.25
2019-05-13T02:27:58.332Z,11.40
2019-05-13T02:30:34.957Z,12.60
2019-05-13T02:33:08.720Z,11.68
2019-05-13T02:35:43.550Z,12.47
2019-05-13T02:38:24.503Z,12.18
2019-05-13T02:40:53.818Z,13.15
2019-05-13T02:43:28.540Z,12.78
2019-05-13T02:46:04.510Z,12.30
2019-05-13T02:48:41.995Z,12.60
2019-05-13T02:51:15.709Z,12.23
2019-05-13T02:53:52.374Z,12.23
2019-05-13T02:56:26.047Z,12.28
2019-05-13T02:59:03.459Z,13.15
2019-05-13T03:01:36.501Z,14.35
2019-05-13T03:04:13.144Z,14.80
2019-05-13T03:06:46.913Z,15.25
2019-05-13T03:09:22.960Z,15.68
2019-05-13T03:11:57.917Z,14.83
2019-05-13T03:14:32.482Z,15.78
2019-05-13T03:17:26.375Z,14.83
2019-05-13T03:22:32.815Z,16.12
2019-05-13T03:25:06.995Z,17.50
2019-05-13T03:27:42.856Z,16.97
2019-05-13T03:30:17.549Z,19.15
2019-05-13T03:32:59.770Z,20.57
2019-05-13T03:35:28.991Z,26.73
2019-05-13T03:38:04.006Z,24.87
2019-05-13T03:40:42.208Z,23.57
2019-05-13T03:43:16.254Z,25.17
2019-05-13T03:45:53.408Z,24.57
2019-05-13T03:48:28.040Z,25.02
2019-05-13T03:51:02.808Z,24.75
2019-05-13T03:53:37.124Z,25.55
2019-05-13T03:56:12.876Z,23.70
2019-05-13T03:58:47.093Z,23.80
2019-05-13T04:01:22.534Z,22.48
2019-05-13T04:03:56.808Z,23.10
2019-05-13T04:06:32.345Z,22.73
2019-05-13T04:09:22.200Z,21.52
2019-05-13T04:11:43.451Z,22.37
2019-05-13T04:14:17.716Z,21.70
2019-05-13T04:16:53.472Z,21.70
2019-05-13T04:19:27.853Z,21.65
2019-05-13T04:22:02.484Z,21.52
2019-05-13T04:24:36.795Z,20.10
2019-05-13T04:27:13.155Z,20.70
2019-05-13T04:29:46.978Z,19.48
2019-05-13T04:32:22.952Z,19.32
2019-05-13T04:34:57.291Z,19.95
2019-05-13T04:37:32.859Z,18.98
2019-05-13T04:40:08.778Z,19.23
2019-05-13T04:42:42.969Z,19.65
2019-05-13T04:45:17.954Z,19.32
2019-05-13T04:47:53.002Z,18.73
2019-05-13T04:50:28.733Z,19.50
2019-05-13T04:53:03.484Z,20.30
2019-05-13T04:55:37.890Z,19.80
2019-05-13T04:58:13.136Z,20.08
2019-05-13T05:05:03.835Z,21.00
2019-05-13T05:08:12.161Z,21.02
2019-05-13T05:11:21.986Z,23.30
2019-05-13T05:14:08.334Z,20.12
2019-05-13T05:17:08.502Z,20.90
2019-05-13T05:20:22.912Z,21.75
2019-05-13T05:23:54.845Z,21.85
2019-05-13T05:27:03.392Z,21.82
2019-05-13T05:30:11.353Z,21.75
2019-05-13T05:32:58.705Z,21.37
2019-05-13T05:36:11.827Z,21.80
2019-05-13T05:39:24.925Z,22.20
2019-05-13T05:44:33.187Z,20.85
2019-05-13T05:47:07.536Z,22.67
2019-05-13T05:49:44.006Z,21.73
2019-05-13T05:52:21.265Z,22.52
2019-05-13T05:54:56.497Z,22.60
2019-05-13T05:57:32.644Z,22.58
2019-05-13T06:00:07.640Z,22.65
2019-05-13T06:02:44.834Z,23.85
2019-05-13T06:05:21.237Z,28.85
2019-05-13T06:07:54.703Z,52.83
2019-05-13T06:10:42.620Z,42.33
2019-05-13T06:13:05.647Z,39.98
2019-05-13T06:15:42.021Z,40.20
2019-05-13T06:18:16.179Z,40.25
2019-05-13T06:20:51.250Z,39.25
2019-05-13T06:23:25.762Z,38.58
2019-05-13T06:26:01.877Z,37.25
2019-05-13T06:28:36.418Z,36.90
2019-05-13T06:31:12.424Z,35.13
2019-05-13T06:33:46.748Z,35.33
2019-05-13T06:36:22.096Z,34.30
2019-05-13T06:38:56.631Z,32.80
2019-05-13T06:41:32.343Z,31.45
2019-05-13T06:44:07.152Z,31.68
2019-05-13T06:46:42.433Z,31.20
2019-05-13T06:49:16.793Z,31.05
2019-05-13T06:51:52.735Z,28.12
2019-05-13T06:54:27.263Z,28.65
2019-05-13T06:57:04.679Z,28.17
2019-05-13T06:59:37.708Z,27.20
2019-05-13T07:02:12.557Z,26.52
2019-05-13T07:04:46.903Z,26.10
2019-05-13T07:07:21.874Z,25.48
2019-05-13T07:09:56.100Z,25.27
2019-05-13T07:12:31.241Z,24.45
2019-05-13T07:15:06.025Z,24.67
2019-05-13T07:17:41.621Z,25.70
2019-05-13T07:20:16.416Z,24.87
2019-05-13T07:22:53.133Z,23.87
2019-05-13T07:25:26.945Z,24.35
2019-05-13T07:28:02.254Z,23.67
2019-05-13T07:30:46.266Z,23.95
2019-05-13T07:33:21.373Z,23.52
2019-05-13T07:35:58.572Z,24.35
2019-05-13T07:38:33.627Z,23.02
2019-05-13T07:41:12.045Z,23.00
2019-05-13T07:43:46.000Z,23.25
2019-05-13T07:46:21.796Z,21.85
2019-05-13T07:48:56.743Z,21.17
2019-05-13T07:51:31.846Z,21.35
2019-05-13T07:54:06.159Z,21.68
2019-05-13T07:56:42.578Z,20.65
2019-05-13T07:59:17.692Z,21.00
2019-05-13T08:01:52.326Z,19.80
2019-05-13T08:04:26.912Z,19.95
2019-05-13T08:07:02.123Z,20.00
2019-05-13T08:09:36.785Z,20.00
2019-05-13T08:12:14.386Z,18.87
2019-05-13T08:14:47.295Z,19.73
2019-05-13T08:17:22.533Z,18.12
2019-05-13T08:19:57.003Z,18.70
2019-05-13T08:22:32.071Z,18.70
2019-05-13T08:25:06.906Z,17.95
2019-05-13T08:27:45.416Z,18.87
2019-05-13T08:30:22.560Z,18.20
2019-05-13T08:32:55.927Z,17.65
2019-05-13T08:35:31.493Z,17.20
2019-05-13T08:38:05.899Z,17.37
2019-05-13T08:40:42.188Z,16.42
2019-05-13T08:43:17.301Z,16.62
2019-05-13T08:45:55.118Z,16.57
2019-05-13T08:48:27.802Z,16.65
2019-05-13T08:51:03.144Z,17.05
2019-05-13T08:53:37.517Z,16.75
2019-05-13T08:56:12.353Z,15.10
2019-05-13T08:58:46.783Z,17.17
2019-05-13T09:01:22.734Z,15.08
2019-05-13T09:03:57.044Z,16.45
2019-05-13T09:06:31.779Z,16.07
2019-05-13T09:09:07.263Z,15.85
2019-05-13T09:11:42.227Z,14.98
2019-05-13T09:14:16.609Z,14.38
2019-05-13T09:16:52.512Z,16.23
2019-05-13T09:19:27.064Z,15.00
2019-05-13T09:22:03.041Z,14.80
2019-05-13T09:24:37.994Z,14.43
2019-05-13T09:27:12.600Z,14.07
2019-05-13T09:29:48.238Z,14.50
2019-05-13T09:32:22.655Z,14.30
2019-05-13T09:34:56.850Z,13.32
2019-05-13T09:37:31.794Z,12.88
2019-05-13T09:40:06.534Z,13.00
2019-05-13T09:42:49.015Z,12.47
2019-05-13T09:45:21.441Z,13.55
2019-05-13T09:47:56.174Z,12.43
2019-05-13T09:50:35.369Z,12.25
2019-05-13T09:53:06.435Z,12.43
2019-05-13T09:55:41.532Z,13.00
2019-05-13T09:58:16.038Z,12.15
2019-05-13T10:00:52.508Z,12.60
2019-05-13T10:06:03.115Z,12.37
2019-05-13T10:08:37.631Z,12.95
2019-05-13T10:11:12.456Z,13.15
2019-05-13T10:13:47.016Z,13.20
2019-05-13T10:16:22.181Z,13.88
2019-05-13T10:18:56.724Z,12.82
2019-05-13T10:21:32.632Z,13.50
2019-05-13T10:24:07.483Z,15.20
2019-05-13T10:26:42.906Z,14.33
2019-05-13T10:29:18.016Z,14.47
2019-05-13T10:31:52.649Z,14.20
2019-05-13T10:34:26.976Z,13.93
2019-05-13T10:37:02.578Z,12.80
2019-05-13T10:39:37.638Z,12.60
2019-05-13T10:42:12.371Z,13.15
2019-05-13T10:44:46.849Z,12.82
2019-05-13T10:47:22.778Z,12.20
2019-05-13T10:49:57.243Z,11.97
2019-05-13T10:52:32.188Z,11.73
2019-05-13T10:55:06.769Z,12.15
2019-05-13T10:57:42.318Z,11.73
2019-05-13T11:00:16.959Z,11.15
2019-05-13T11:02:51.304Z,10.58
2019-05-13T11:05:25.801Z,10.32
2019-05-13T11:08:02.031Z,9.30
2019-05-13T11:10:36.684Z,10.30
2019-05-13T11:13:11.937Z,10.78
2019-05-13T11:15:46.343Z,9.90
2019-05-13T11:18:23.635Z,9.85
2019-05-13T11:20:57.036Z,10.10
2019-05-13T11:23:32.235Z,10.30
2019-05-13T11:26:06.787Z,10.20
2019-05-13T11:28:42.860Z,10.00
2019-05-13T11:31:16.736Z,10.08
2019-05-13T11:33:52.055Z,9.50
2019-05-13T11:36:26.518Z,10.63
2019-05-13T11:39:03.027Z,10.55
2019-05-13T11:41:36.904Z,10.80
2019-05-13T11:44:16.153Z,11.00
2019-05-13T11:46:47.346Z,11.40
2019-05-13T11:49:21.886Z,12.03
2019-05-13T11:51:56.222Z,12.13
2019-05-13T11:54:30.642Z,12.75
2019-05-13T11:57:06.493Z,12.40
2019-05-13T11:59:42.985Z,13.05
2019-05-13T12:02:16.528Z,13.38
2019-05-13T12:04:53.566Z,14.98
2019-05-13T12:07:26.843Z,14.75
2019-05-13T12:10:02.622Z,14.78
2019-05-13T12:12:37.402Z,14.53
2019-05-13T12:15:44.573Z,15.45
2019-05-13T12:17:48.553Z,15.18
2019-05-13T12:20:24.342Z,15.15
2019-05-13T12:22:58.527Z,15.38
2019-05-13T12:25:33.524Z,16.15
2019-05-13T12:28:07.999Z,15.65
2019-05-13T12:30:42.426Z,15.80
2019-05-13T12:33:16.508Z,15.25
2019-05-13T12:35:53.039Z,15.60
2019-05-13T12:38:26.822Z,14.47
2019-05-13T12:41:04.942Z,14.95
2019-05-13T12:43:37.205Z,14.38
2019-05-13T12:46:12.484Z,15.45
2019-05-13T12:48:46.853Z,14.58
2019-05-13T12:51:22.696Z,14.20
2019-05-13T12:53:56.816Z,14.60
2019-05-13T12:56:33.317Z,14.13
2019-05-13T12:59:07.106Z,14.30
2019-05-13T13:01:41.621Z,13.88
2019-05-13T13:04:16.072Z,14.90
2019-05-13T13:06:52.951Z,14.58
2019-05-13T13:09:26.217Z,15.38
2019-05-13T13:12:00.530Z,15.10
2019-05-13T13:14:39.416Z,17.20
2019-05-13T13:17:12.893Z,15.75
2019-05-13T13:19:46.751Z,16.05
2019-05-13T13:22:25.223Z,16.80
2019-05-13T13:24:57.686Z,16.73
2019-05-13T13:28:01.953Z,17.92
2019-05-13T13:30:08.892Z,19.20
2019-05-13T13:32:45.375Z,17.73
2019-05-13T13:35:21.248Z,17.57
2019-05-13T13:37:54.834Z,18.65
2019-05-13T13:40:34.069Z,17.82
2019-05-13T13:43:05.563Z,17.65
2019-05-13T13:48:16.117Z,17.05
2019-05-13T13:50:55.759Z,16.75
2019-05-13T13:53:26.445Z,17.62
2019-05-13T13:56:02.302Z,17.48
2019-05-13T13:58:36.865Z,16.87
2019-05-13T14:01:18.198Z,18.42
2019-05-13T14:03:47.239Z,18.05
2019-05-13T14:06:25.463Z,12.43
2019-05-13T14:07:22.275Z,17.25
2019-05-13T14:08:57.672Z,17.55
2019-05-13T14:11:33.119Z,18.02
2019-05-13T14:14:07.609Z,18.25
2019-05-13T14:16:43.543Z,18.48
2019-05-13T14:19:18.123Z,18.48
2019-05-13T14:21:52.804Z,19.67
2019-05-13T14:24:28.093Z,20.50
2019-05-13T14:27:03.035Z,19.92
2019-05-13T14:29:41.902Z,19.77
2019-05-13T14:32:13.538Z,20.80
2019-05-13T14:34:47.801Z,20.88
2019-05-13T14:37:22.470Z,20.20
2019-05-13T14:39:56.369Z,20.02
2019-05-13T14:42:32.262Z,20.50
2019-05-13T14:45:06.227Z,19.73
2019-05-13T14:47:40.491Z,20.75
2019-05-13T14:50:14.716Z,20.60
2019-05-13T14:52:48.674Z,20.80
2019-05-13T14:55:23.102Z,21.48
2019-05-13T14:57:57.493Z,21.57
2019-05-13T15:00:32.761Z,22.85
2019-05-13T15:03:06.991Z,24.43
2019-05-13T15:05:42.966Z,25.68
2019-05-13T15:08:18.083Z,24.55
2019-05-13T15:10:53.429Z,26.05
2019-05-13T15:13:27.846Z,27.77
2019-05-13T15:16:02.037Z,26.15
2019-05-13T15:18:35.969Z,26.10
2019-05-13T15:21:12.106Z,26.65
2019-05-13T15:23:45.991Z,26.05
2019-05-13T15:26:22.203Z,27.17
2019-05-13T15:28:56.403Z,27.75
2019-05-13T15:31:31.623Z,28.17
2019-05-13T15:34:06.065Z,26.73
2019-05-13T15:36:41.929Z,27.22
2019-05-13T15:39:16.567Z,26.62
2019-05-13T15:41:52.331Z,27.22
2019-05-13T15:44:26.847Z,26.40
2019-05-13T15:47:03.903Z,27.07
2019-05-13T15:49:37.477Z,26.25
2019-05-13T15:52:12.063Z,25.60
2019-05-13T15:54:46.605Z,24.60
2019-05-13T15:57:21.417Z,24.30
2019-05-13T15:59:56.146Z,23.05
2019-05-13T16:02:31.344Z,23.98
2019-05-13T16:05:05.797Z,23.27
2019-05-13T16:07:41.820Z,22.17
2019-05-13T16:10:16.265Z,21.70
2019-05-13T16:12:51.965Z,21.30
2019-05-13T16:15:26.718Z,21.17
2019-05-13T16:18:02.576Z,20.37
2019-05-13T16:20:37.364Z,20.45
2019-05-13T16:23:12.369Z,20.00
2019-05-13T16:25:47.148Z,19.48
2019-05-13T16:28:21.349Z,19.42
2019-05-13T16:30:55.605Z,17.90
2019-05-13T16:33:31.383Z,18.37
2019-05-13T16:36:06.093Z,19.23
2019-05-13T16:38:41.690Z,19.32
2019-05-13T16:41:16.419Z,18.07
2019-05-13T16:43:50.646Z,17.05
2019-05-13T16:46:24.925Z,17.40
2019-05-13T16:49:01.257Z,16.77
2019-05-13T16:51:35.301Z,15.83
2019-05-13T16:54:09.643Z,14.63
2019-05-13T16:56:44.118Z,14.80
2019-05-13T16:59:21.000Z,14.70
2019-05-13T17:01:54.576Z,13.50
2019-05-13T17:04:35.595Z,13.38
2019-05-13T17:07:10.099Z,12.58
2019-05-13T17:09:44.426Z,12.43
2019-05-13T17:12:21.120Z,12.07
2019-05-13T17:15:35.481Z,12.30
2019-05-13T17:17:41.200Z,11.73
2019-05-13T17:20:18.257Z,11.35
2019-05-13T17:22:54.499Z,11.12
2019-05-13T17:25:30.993Z,10.55
2019-05-13T17:28:21.964Z,10.43
2019-05-13T17:30:56.567Z,10.75
2019-05-13T17:33:31.968Z,9.90
2019-05-13T17:36:07.388Z,9.73
2019-05-13T17:38:41.693Z,10.40
2019-05-13T17:41:15.983Z,9.43
2019-05-13T17:43:51.846Z,9.43
2019-05-13T17:46:26.041Z,8.85
2019-05-13T17:49:01.034Z,9.20
2019-05-13T17:51:35.182Z,8.80
2019-05-13T17:54:11.602Z,8.75
2019-05-13T17:56:45.252Z,7.90
2019-05-13T17:59:19.232Z,7.80
2019-05-13T18:01:53.380Z,7.42
2019-05-13T18:04:27.526Z,7.85
2019-05-13T18:07:01.932Z,7.62
2019-05-13T18:09:36.241Z,7.37
2019-05-13T18:12:11.535Z,7.17
2019-05-13T18:14:45.942Z,7.20
2019-05-13T18:17:21.568Z,7.00
2019-05-13T18:19:57.283Z,7.30
2019-05-13T18:22:31.449Z,6.90
2019-05-13T18:25:05.739Z,7.05
2019-05-13T18:27:43.151Z,7.10
2019-05-13T18:30:16.020Z,7.35
2019-05-13T18:32:51.782Z,7.12
2019-05-13T18:35:26.349Z,6.75
2019-05-13T18:38:01.479Z,6.35
2019-05-13T18:40:35.791Z,6.70
2019-05-13T18:43:09.800Z,6.55
2019-05-13T18:45:44.044Z,5.87
2019-05-13T18:48:18.320Z,5.92
2019-05-13T18:50:52.566Z,6.12
2019-05-13T18:53:26.888Z,5.50
2019-05-13T18:56:01.972Z,5.90
2019-05-13T18:58:36.301Z,5.80
2019-05-13T19:01:11.215Z,6.00
2019-05-13T19:03:45.700Z,6.08
2019-05-13T19:06:22.092Z,5.70
2019-05-13T19:08:56.772Z,5.40
2019-05-13T19:11:31.717Z,5.80
2019-05-13T19:14:06.075Z,5.45
2019-05-13T19:16:42.231Z,4.97
2019-05-13T19:19:19.878Z,5.40
2019-05-13T19:21:52.443Z,5.40
2019-05-13T19:24:26.636Z,5.30
2019-05-13T19:27:01.756Z,5.03
2019-05-13T19:29:35.884Z,5.22
2019-05-13T19:32:12.200Z,5.33
2019-05-13T19:34:45.958Z,5.35
2019-05-13T19:37:22.417Z,5.58
2019-05-13T19:39:56.396Z,5.60
2019-05-13T19:42:31.378Z,5.78
2019-05-13T19:45:05.878Z,5.47
2019-05-13T19:47:41.857Z,5.80
2019-05-13T19:50:16.388Z,5.20
2019-05-13T19:52:51.885Z,6.05
2019-05-13T19:55:26.177Z,5.97
2019-05-13T19:58:01.849Z,6.12
2019-05-13T20:00:37.576Z,6.15
2019-05-13T20:03:12.033Z,6.20
2019-05-13T20:05:46.273Z,6.17
2019-05-13T20:08:21.200Z,6.03
2019-05-13T20:10:55.667Z,6.30
2019-05-13T20:13:29.726Z,7.58
2019-05-13T20:16:04.866Z,7.35
2019-05-13T20:18:41.336Z,7.45
2019-05-13T20:21:15.520Z,7.55
2019-05-13T20:23:51.754Z,7.42
2019-05-13T20:26:25.429Z,7.17
2019-05-13T20:29:01.648Z,7.17
2019-05-13T20:31:35.673Z,7.08
2019-05-13T20:34:12.070Z,6.90
2019-05-13T20:36:46.211Z,7.67
2019-05-13T20:39:22.431Z,7.40
2019-05-13T20:41:56.310Z,7.42
2019-05-13T20:44:31.268Z,7.03
2019-05-13T20:47:05.854Z,8.08
2019-05-13T20:49:41.705Z,7.22
2019-05-13T20:52:16.216Z,6.87
2019-05-13T20:54:51.116Z,7.42
2019-05-13T20:57:26.099Z,6.67
2019-05-13T21:00:02.320Z,7.40
2019-05-13T21:02:36.354Z,6.92
2019-05-13T21:05:12.091Z,6.95
2019-05-13T21:07:46.600Z,6.40
2019-05-13T21:10:21.359Z,6.85
2019-05-13T21:12:55.665Z,7.03
2019-05-13T21:15:31.720Z,6.92
2019-05-13T21:18:05.694Z,6.78
2019-05-13T21:20:40.998Z,7.05
2019-05-13T21:23:15.258Z,6.83
2019-05-13T21:25:51.099Z,6.67
2019-05-13T21:28:24.849Z,7.08
2019-05-13T21:30:58.937Z,6.20
2019-05-13T21:33:33.029Z,6.75
2019-05-13T21:36:07.296Z,7.10
2019-05-13T21:38:41.336Z,6.42
2019-05-13T21:41:17.571Z,7.03
2019-05-13T21:43:52.125Z,6.90
2019-05-13T21:46:26.977Z,6.47
2019-05-13T21:49:02.593Z,6.87
2019-05-13T21:51:36.812Z,7.05
2019-05-13T21:54:11.749Z,7.22
2019-05-13T21:56:46.634Z,7.53
2019-05-13T21:59:23.200Z,7.40
2019-05-13T22:01:56.899Z,7.08
2019-05-13T22:04:31.447Z,6.80
2019-05-13T22:07:05.578Z,7.08
2019-05-13T22:09:41.720Z,7.08
2019-05-13T22:12:15.726Z,7.08
2019-05-13T22:14:51.759Z,7.67
2019-05-13T22:17:25.879Z,6.75
2019-05-13T22:20:01.849Z,7.08
2019-05-13T22:22:36.435Z,7.15
2019-05-13T22:25:12.200Z,6.78
2019-05-13T22:27:46.364Z,7.17
2019-05-13T22:30:20.723Z,7.15
2019-05-13T22:32:54.878Z,7.20
2019-05-13T22:35:29.455Z,7.15
2019-05-13T22:38:03.673Z,7.22
2019-05-13T22:40:38.477Z,8.38
2019-05-13T22:43:12.748Z,8.13
2019-05-13T22:45:47.144Z,8.00
2019-05-13T22:48:22.224Z,8.30
2019-05-13T22:50:56.407Z,7.90
2019-05-13T22:53:31.784Z,7.60
2019-05-13T22:56:06.332Z,7.60
2019-05-13T22:58:41.239Z,7.20
2019-05-13T23:01:15.286Z,7.47
2019-05-13T23:03:51.380Z,7.75
2019-05-13T23:06:25.549Z,7.40
2019-05-13T23:09:01.731Z,7.40
2019-05-13T23:11:36.519Z,7.70
2019-05-13T23:14:13.360Z,7.78
2019-05-13T23:16:46.361Z,8.10
2019-05-13T23:19:21.687Z,7.53
2019-05-13T23:21:55.942Z,7.70
2019-05-13T23:24:31.150Z,8.15
2019-05-13T23:27:05.886Z,7.53
2019-05-13T23:29:41.236Z,7.90
2019-05-13T23:32:15.462Z,7.75
2019-05-13T23:34:51.222Z,8.10
2019-05-13T23:37:25.984Z,8.10
2019-05-13T23:40:01.434Z,8.35
2019-05-13T23:42:36.202Z,9.10
2019-05-13T23:45:11.469Z,8.58
2019-05-13T23:47:46.094Z,9.08
2019-05-13T23:50:21.593Z,8.85
2019-05-13T23:52:55.984Z,8.90
2019-05-13T23:55:32.171Z,9.38
2019-05-13T23:58:06.279Z,8.98
